Terminal Aerodrome Forecast
Issued by NWS Shreveport, LA

Home | Current Version | Previous Version | Text Only | Print | Product List | Glossary On
Versions: 1 2 3 4 5 6 7 8 9 10 11 12 13 14 15 16 17 18 19 20 21
201
FTUS44 KSHV 200603 AAA
TAFTYR
TAF AMD
KTYR 200603Z 2006/2106 16012G18KT P6SM BKN015
     FM201000 19010KT 3SM TSRA BR OVC010CB
     FM201800 15007KT 5SM -RA BR OVC015=

USA.gov is the U.S. government's official web portal to all federal, state and local government web resources and services.